Time;durP1;ratioP1;P1;durP2;ratioP2;P2;SDS_P1;SDS_P2;PMS_P1;PMS_P2;Temp;Humidity;BMP_temperature;BMP_pressure;BME280_temperature;BME280_humidity;BME280_pressure;Samples;Min_cycle;Max_cycle;Signal;HPM_P1;HPM_P2
2021/06/05 00:02:24;;;;;;;3.10;2.35;;;23.80;64.00;;;;;;5015162;28;20052;-46
2021/06/05 00:04:53;;;;;;;4.63;2.40;;;23.70;63.90;;;;;;5007589;28;20038;-42
2021/06/05 00:07:19;;;;;;;3.42;3.13;;;23.80;63.80;;;;;;5012229;28;20100;-49
2021/06/05 00:09:44;;;;;;;2.75;2.20;;;23.70;63.70;;;;;;5014695;28;20455;-42
2021/06/05 00:12:12;;;;;;;3.85;2.75;;;23.80;63.70;;;;;;5014444;28;20108;-43
2021/06/05 00:14:38;;;;;;;3.88;2.58;;;23.70;63.60;;;;;;5014478;28;20036;-42
2021/06/05 00:17:04;;;;;;;3.75;2.60;;;23.80;63.60;;;;;;5014888;28;20029;-42
2021/06/05 00:19:29;;;;;;;2.58;2.10;;;23.80;63.50;;;;;;5013748;28;20065;-42
2021/06/05 00:21:55;;;;;;;3.05;2.40;;;23.80;63.50;;;;;;5018631;28;20030;-42
2021/06/05 00:24:21;;;;;;;1.95;1.77;;;23.80;63.30;;;;;;5018511;28;20040;-49
2021/06/05 00:26:47;;;;;;;3.13;2.55;;;23.70;63.30;;;;;;5014505;28;20533;-42
2021/06/05 00:29:13;;;;;;;2.22;2.03;;;23.80;63.30;;;;;;5015140;28;20026;-42
2021/06/05 00:31:40;;;;;;;5.05;2.55;;;23.80;63.20;;;;;;5011157;28;20107;-42
2021/06/05 00:34:06;;;;;;;2.40;2.20;;;23.80;63.10;;;;;;5014752;28;20033;-42
2021/06/05 00:36:31;;;;;;;2.35;2.03;;;23.80;63.00;;;;;;5013748;28;20026;-42
2021/06/05 00:38:57;;;;;;;3.50;2.15;;;23.80;63.00;;;;;;5014030;28;20472;-43
2021/06/05 00:41:27;;;;;;;2.40;2.08;;;23.80;62.90;;;;;;5011025;28;20057;-45
2021/06/05 00:43:56;;;;;;;2.47;2.28;;;23.80;62.90;;;;;;5014211;28;20045;-42
2021/06/05 00:46:24;;;;;;;2.38;1.73;;;23.80;62.80;;;;;;5013981;28;20034;-49
2021/06/05 00:48:50;;;;;;;3.22;2.00;;;23.80;62.70;;;;;;5014420;28;20034;-42
2021/06/05 00:51:17;;;;;;;2.33;2.10;;;23.80;62.70;;;;;;5013708;28;20049;-43
2021/06/05 00:53:44;;;;;;;2.13;1.92;;;23.70;62.60;;;;;;5013797;28;20119;-42
2021/06/05 00:56:12;;;;;;;2.88;1.95;;;23.80;62.60;;;;;;5014478;28;20034;-47
2021/06/05 00:58:38;;;;;;;2.15;1.83;;;23.80;62.60;;;;;;5011433;28;20076;-43
2021/06/05 01:01:10;;;;;;;2.28;1.75;;;23.70;62.50;;;;;;5016564;28;20130;-42
2021/06/05 01:03:37;;;;;;;4.07;2.15;;;23.80;62.60;;;;;;5017275;28;20381;-42
2021/06/05 01:06:15;;;;;;;3.65;2.00;;;23.80;62.50;;;;;;5013560;28;20034;-42
2021/06/05 01:08:58;;;;;;;2.80;2.25;;;23.70;62.40;;;;;;5008911;28;20037;-42
2021/06/05 01:11:33;;;;;;;2.00;1.85;;;23.80;62.50;;;;;;5013083;28;20061;-45
2021/06/05 01:14:05;;;;;;;2.75;2.10;;;23.80;62.40;;;;;;5013968;28;20041;-42
2021/06/05 01:16:32;;;;;;;2.08;1.70;;;23.80;62.30;;;;;;5012775;28;20472;-43
2021/06/05 01:19:26;;;;;;;2.08;1.67;;;23.70;62.20;;;;;;5013970;28;20038;-42
2021/06/05 01:22:09;;;;;;;3.50;1.60;;;23.70;62.20;;;;;;5013962;28;20045;-42
2021/06/05 01:24:51;;;;;;;2.28;1.90;;;23.80;62.20;;;;;;5012662;28;20069;-42
2021/06/05 01:27:28;;;;;;;3.95;2.00;;;23.70;62.10;;;;;;5012784;28;20026;-42
2021/06/05 01:29:57;;;;;;;3.13;1.65;;;23.80;62.10;;;;;;5013812;28;20030;-42
2021/06/05 01:32:26;;;;;;;1.83;1.55;;;23.70;62.00;;;;;;5012974;28;20124;-49
2021/06/05 01:34:55;;;;;;;2.78;2.00;;;23.80;62.00;;;;;;5013356;28;20048;-42
2021/06/05 01:37:21;;;;;;;2.70;1.58;;;23.70;61.90;;;;;;5013167;28;20411;-49
2021/06/05 01:39:49;;;;;;;2.28;1.90;;;23.70;61.90;;;;;;5012997;28;20030;-43
2021/06/05 01:42:27;;;;;;;2.03;1.60;;;23.70;61.90;;;;;;5013342;28;20088;-42
2021/06/05 01:44:57;;;;;;;2.80;1.98;;;23.80;61.90;;;;;;5013146;28;20101;-42
2021/06/05 01:47:23;;;;;;;2.60;1.88;;;23.70;61.80;;;;;;5013229;28;20099;-49
2021/06/05 01:49:49;;;;;;;1.73;1.30;;;23.70;61.80;;;;;;5012871;28;20037;-43
2021/06/05 01:52:22;;;;;;;1.90;1.65;;;23.70;61.70;;;;;;5013156;28;20111;-42
2021/06/05 01:54:55;;;;;;;2.90;1.95;;;23.70;61.70;;;;;;5012465;28;20073;-42
2021/06/05 01:57:25;;;;;;;2.13;1.60;;;23.70;61.60;;;;;;5013219;28;20056;-42
2021/06/05 01:59:52;;;;;;;1.80;1.70;;;23.70;61.60;;;;;;5013060;28;20033;-42
2021/06/05 02:02:18;;;;;;;2.58;1.90;;;23.70;61.50;;;;;;5012858;28;20034;-43
2021/06/05 02:04:45;;;;;;;2.65;1.85;;;23.70;61.50;;;;;;5011979;28;20018;-42
2021/06/05 02:07:11;;;;;;;1.50;1.40;;;23.70;61.40;;;;;;5007940;28;20029;-42
2021/06/05 02:09:37;;;;;;;1.60;1.50;;;23.70;61.40;;;;;;5011886;28;20029;-43
2021/06/05 02:12:09;;;;;;;1.60;1.50;;;23.70;61.40;;;;;;5012561;28;20114;-42
2021/06/05 02:14:41;;;;;;;1.75;1.65;;;23.70;61.30;;;;;;5011782;28;20034;-43
2021/06/05 02:17:10;;;;;;;3.90;1.85;;;23.70;61.90;;;;;;5013127;28;20037;-42
2021/06/05 02:19:45;;;;;;;1.80;1.48;;;23.70;61.30;;;;;;5011698;28;20097;-42
2021/06/05 02:22:16;;;;;;;1.50;1.40;;;23.70;61.20;;;;;;5011888;28;20573;-42
2021/06/05 02:24:55;;;;;;;1.92;1.52;;;23.70;61.20;;;;;;5024076;28;20428;-42
2021/06/05 02:27:23;;;;;;;1.48;1.38;;;23.70;61.20;;;;;;5032285;28;20390;-43
2021/06/05 02:29:50;;;;;;;1.60;1.48;;;23.70;61.10;;;;;;5024168;28;20036;-42
2021/06/05 02:32:18;;;;;;;2.65;1.40;;;23.70;61.10;;;;;;5012247;28;20112;-42
2021/06/05 02:34:46;;;;;;;1.75;1.33;;;23.70;61.20;;;;;;5011228;28;20082;-42
2021/06/05 02:37:16;;;;;;;2.10;1.60;;;23.70;61.10;;;;;;5012207;28;20156;-42
2021/06/05 02:39:42;;;;;;;1.50;1.30;;;23.70;61.00;;;;;;5011416;28;20041;-43
2021/06/05 02:42:10;;;;;;;2.00;1.50;;;23.70;61.00;;;;;;5012389;28;20030;-42
2021/06/05 02:44:36;;;;;;;1.73;1.40;;;23.70;61.00;;;;;;5011451;28;20088;-42
2021/06/05 02:47:07;;;;;;;2.53;1.35;;;23.70;61.00;;;;;;5012467;28;20034;-42
2021/06/05 02:49:35;;;;;;;6.47;2.08;;;23.70;61.00;;;;;;5011477;28;20029;-42
2021/06/05 02:52:33;;;;;;;1.40;1.23;;;23.70;60.90;;;;;;5011957;28;20045;-43
2021/06/05 02:55:08;;;;;;;1.20;1.10;;;23.70;60.90;;;;;;5012175;28;20025;-43
2021/06/05 02:57:34;;;;;;;2.03;1.45;;;23.70;60.90;;;;;;5005154;28;20530;-42
2021/06/05 03:00:00;;;;;;;1.40;1.30;;;23.70;60.90;;;;;;5011954;28;20028;-42
2021/06/05 03:02:26;;;;;;;1.83;1.30;;;23.70;60.90;;;;;;5010880;28;20392;-49
2021/06/05 03:04:52;;;;;;;1.80;1.65;;;23.70;60.80;;;;;;5011803;28;20527;-42
2021/06/05 03:07:19;;;;;;;1.38;1.00;;;23.70;60.80;;;;;;5010642;28;20022;-42
2021/06/05 03:09:45;;;;;;;1.33;1.13;;;23.70;60.80;;;;;;5011045;28;20215;-42
2021/06/05 03:12:13;;;;;;;1.38;1.25;;;23.70;60.80;;;;;;5011888;28;20122;-42
2021/06/05 03:14:39;;;;;;;2.50;1.23;;;23.70;60.70;;;;;;5025908;28;20062;-40
2021/06/05 03:17:09;;;;;;;1.90;1.23;;;23.70;60.70;;;;;;5011859;28;20038;-40
2021/06/05 03:19:35;;;;;;;1.95;1.27;;;23.70;60.70;;;;;;5042608;28;20499;-41
2021/06/05 03:22:02;;;;;;;1.58;1.13;;;23.70;60.70;;;;;;5026307;28;20034;-41
2021/06/05 03:24:28;;;;;;;1.75;1.38;;;23.70;60.70;;;;;;5003243;28;20096;-44
2021/06/05 03:26:55;;;;;;;1.25;1.10;;;23.70;60.70;;;;;;5011346;28;20472;-40
2021/06/05 03:29:22;;;;;;;1.55;1.30;;;23.70;60.60;;;;;;5011491;28;20440;-41
2021/06/05 03:31:48;;;;;;;1.88;1.30;;;23.70;60.60;;;;;;5010250;28;20073;-40
2021/06/05 03:34:14;;;;;;;3.08;1.35;;;23.70;60.60;;;;;;5010858;28;20410;-40
2021/06/05 03:36:40;;;;;;;5.55;3.08;;;23.70;60.60;;;;;;5010782;28;20025;-40
2021/06/05 03:39:06;;;;;;;2.05;1.30;;;23.70;60.60;;;;;;5011543;28;20026;-40
2021/06/05 03:41:33;;;;;;;1.42;1.30;;;23.70;60.60;;;;;;5010385;28;20021;-40
2021/06/05 03:43:59;;;;;;;1.30;1.20;;;23.70;60.60;;;;;;5011647;28;20049;-40
2021/06/05 03:46:24;;;;;;;2.20;1.02;;;23.70;60.50;;;;;;5011007;28;20403;-43
2021/06/05 03:48:50;;;;;;;1.77;1.35;;;23.70;60.50;;;;;;5011101;28;20037;-40
2021/06/05 03:51:16;;;;;;;1.48;1.30;;;23.70;60.50;;;;;;5011249;28;20428;-40
2021/06/05 03:53:41;;;;;;;2.03;1.33;;;23.70;60.50;;;;;;5010781;28;20049;-40
2021/06/05 03:56:07;;;;;;;1.60;1.20;;;23.70;60.50;;;;;;5011556;28;20494;-40
2021/06/05 03:58:39;;;;;;;1.25;1.15;;;23.70;60.50;;;;;;5010588;28;20026;-40
2021/06/05 04:01:12;;;;;;;;;;;23.70;60.50;;;;;;5011420;28;20087;-40
2021/06/05 04:03:39;;;;;;;1.10;1.00;;;23.70;60.40;;;;;;5003266;28;19971;-40
2021/06/05 04:06:05;;;;;;;1.60;1.02;;;23.70;60.40;;;;;;5011335;28;20041;-40
2021/06/05 04:08:31;;;;;;;1.40;1.17;;;23.70;60.40;;;;;;5010007;28;20034;-41
2021/06/05 04:10:57;;;;;;;2.33;1.17;;;23.60;60.30;;;;;;5011201;28;20039;-40
2021/06/05 04:13:23;;;;;;;1.40;0.93;;;23.70;60.40;;;;;;5011039;28;20022;-40
2021/06/05 04:15:49;;;;;;;1.20;1.00;;;23.70;60.40;;;;;;5010199;28;20022;-43
2021/06/05 04:18:31;;;;;;;1.95;1.10;;;23.70;60.40;;;;;;5026216;28;20056;-42
2021/06/05 04:20:58;;;;;;;1.83;1.20;;;23.70;60.40;;;;;;5011402;28;20029;-42
2021/06/05 04:23:24;;;;;;;1.75;1.42;;;23.70;60.30;;;;;;5010922;28;20046;-43
2021/06/05 04:25:50;;;;;;;1.65;1.10;;;23.70;60.30;;;;;;5007699;28;20030;-43
2021/06/05 04:28:18;;;;;;;1.00;0.90;;;23.70;60.40;;;;;;5011104;28;20032;-42
2021/06/05 04:30:44;;;;;;;1.10;1.00;;;23.60;60.30;;;;;;5025742;28;20034;-43
2021/06/05 04:33:12;;;;;;;3.15;1.23;;;23.70;60.30;;;;;;5002504;28;20088;-42
2021/06/05 04:35:38;;;;;;;1.75;1.20;;;23.70;60.30;;;;;;5010132;28;20033;-43
2021/06/05 04:38:05;;;;;;;1.90;1.20;;;23.70;60.30;;;;;;5008019;28;20030;-42
2021/06/05 04:40:30;;;;;;;1.88;1.10;;;23.70;60.20;;;;;;5009933;28;20060;-49
2021/06/05 04:42:57;;;;;;;1.55;1.20;;;23.70;60.30;;;;;;5010771;28;20037;-42
2021/06/05 04:45:23;;;;;;;1.65;0.98;;;23.70;60.20;;;;;;5013660;28;20026;-43
2021/06/05 04:47:49;;;;;;;1.00;0.90;;;23.70;60.20;;;;;;5010779;28;20037;-42
2021/06/05 04:50:20;;;;;;;1.73;1.30;;;23.70;60.20;;;;;;5014307;28;20038;-42
2021/06/05 04:52:46;;;;;;;1.00;0.90;;;23.70;60.30;;;;;;5013750;28;20058;-42
2021/06/05 04:55:12;;;;;;;0.93;0.80;;;23.70;60.30;;;;;;5014216;28;20038;-43
2021/06/05 04:57:38;;;;;;;1.15;1.05;;;23.70;60.30;;;;;;5013340;28;20026;-43
2021/06/05 05:00:07;;;;;;;0.90;0.80;;;23.60;60.20;;;;;;5014403;28;20080;-42
2021/06/05 05:02:33;;;;;;;1.02;0.90;;;23.70;60.20;;;;;;5012917;28;20042;-43
2021/06/05 05:04:58;;;;;;;1.45;0.90;;;23.70;60.20;;;;;;5014282;28;20766;-42
2021/06/05 05:07:24;;;;;;;1.20;0.95;;;23.70;60.20;;;;;;5012826;28;20037;-42
2021/06/05 05:09:50;;;;;;;2.53;0.80;;;23.70;60.10;;;;;;5012991;28;20476;-42
2021/06/05 05:12:16;;;;;;;1.13;0.90;;;23.70;60.10;;;;;;5013941;28;20030;-42
2021/06/05 05:14:41;;;;;;;1.10;1.00;;;23.70;60.10;;;;;;5013243;28;20030;-42
2021/06/05 05:17:07;;;;;;;1.10;1.00;;;23.70;60.10;;;;;;5013694;28;20606;-46
2021/06/05 05:19:33;;;;;;;1.50;1.00;;;23.70;60.10;;;;;;5012641;28;20037;-46
2021/06/05 05:21:59;;;;;;;1.10;0.90;;;23.70;60.10;;;;;;5013514;28;20063;-42
2021/06/05 05:24:25;;;;;;;1.30;0.98;;;23.70;60.10;;;;;;5013847;28;20451;-42
2021/06/05 05:26:51;;;;;;;1.02;0.90;;;23.60;60.10;;;;;;5013124;28;20025;-42
2021/06/05 05:29:16;;;;;;;1.52;0.90;;;23.70;60.20;;;;;;5013462;28;20033;-43
2021/06/05 05:31:42;;;;;;;1.30;0.80;;;23.70;60.10;;;;;;5012706;28;20030;-43
2021/06/05 05:34:08;;;;;;;0.90;0.70;;;23.70;60.10;;;;;;5013698;28;20030;-42
2021/06/05 05:36:36;;;;;;;1.80;0.98;;;23.70;60.10;;;;;;5012606;28;20034;-43
2021/06/05 05:39:10;;;;;;;1.25;0.90;;;23.70;60.00;;;;;;5013506;28;20383;-42
2021/06/05 05:41:37;;;;;;;1.20;0.93;;;23.70;60.00;;;;;;5020361;28;20079;-42
2021/06/05 05:44:03;;;;;;;1.52;0.90;;;23.70;60.00;;;;;;5030393;28;20479;-42
2021/06/05 05:46:28;;;;;;;1.10;1.00;;;23.70;60.00;;;;;;5013150;28;20100;-42
2021/06/05 05:48:54;;;;;;;1.88;0.82;;;23.60;60.00;;;;;;5012715;28;20026;-42
2021/06/05 05:51:22;;;;;;;1.23;0.85;;;23.70;60.00;;;;;;5012769;28;20046;-42
2021/06/05 05:53:47;;;;;;;1.63;1.00;;;23.70;60.10;;;;;;5012515;28;20030;-42
2021/06/05 05:56:15;;;;;;;3.33;0.98;;;23.70;60.20;;;;;;5014620;28;20490;-43
2021/06/05 05:58:44;;;;;;;2.22;1.10;;;23.70;60.00;;;;;;5012460;28;20125;-42
2021/06/05 06:01:11;;;;;;;4.28;1.25;;;23.70;60.50;;;;;;5012819;28;20113;-44
2021/06/05 06:03:38;;;;;;;1.40;0.80;;;23.70;60.00;;;;;;5004052;28;20489;-43
2021/06/05 06:06:06;;;;;;;1.58;0.80;;;23.70;60.00;;;;;;5012964;28;20456;-42
2021/06/05 06:08:34;;;;;;;2.40;0.95;;;23.70;60.00;;;;;;5011901;28;20036;-49
2021/06/05 06:11:00;;;;;;;1.50;0.80;;;23.70;59.90;;;;;;5012156;28;20034;-42
2021/06/05 06:13:26;;;;;;;2.63;0.82;;;23.70;59.90;;;;;;5006527;28;20053;-42
2021/06/05 06:15:52;;;;;;;2.35;0.93;;;23.70;59.90;;;;;;5010821;28;20608;-43
2021/06/05 06:18:18;;;;;;;2.47;1.00;;;23.70;59.80;;;;;;5012331;28;20037;-42
2021/06/05 06:20:47;;;;;;;4.20;0.82;;;23.70;59.70;;;;;;5011608;28;20026;-42
2021/06/05 06:23:19;;;;;;;6.20;0.95;;;23.60;59.80;;;;;;5011906;28;20042;-43
2021/06/05 06:25:49;;;;;;;3.92;0.90;;;23.40;59.20;;;;;;5010917;28;20040;-42
2021/06/05 06:28:15;;;;;;;4.13;1.05;;;23.20;59.50;;;;;;5011538;28;20033;-42
2021/06/05 06:30:43;;;;;;;5.18;1.30;;;23.00;60.30;;;;;;5011524;28;20064;-42
2021/06/05 06:33:10;;;;;;;2.95;0.90;;;22.90;60.60;;;;;;5012308;28;20042;-43
2021/06/05 06:35:37;;;;;;;1.40;0.90;;;22.80;60.60;;;;;;5011139;28;20036;-42
2021/06/05 06:38:06;;;;;;;2.10;1.10;;;22.80;60.50;;;;;;5012036;28;20030;-45
2021/06/05 06:40:34;;;;;;;1.77;0.90;;;22.70;60.30;;;;;;5011876;28;20026;-49
2021/06/05 06:43:02;;;;;;;2.03;0.90;;;22.70;60.00;;;;;;5012486;28;20038;-45
2021/06/05 06:45:29;;;;;;;4.50;0.90;;;22.60;60.00;;;;;;5012540;28;20124;-42
2021/06/05 06:47:56;;;;;;;2.78;0.98;;;22.70;60.20;;;;;;5011410;28;20045;-42
2021/06/05 06:50:24;;;;;;;1.83;0.90;;;22.70;60.30;;;;;;5011841;28;20379;-43
2021/06/05 06:52:51;;;;;;;2.42;0.85;;;22.80;60.20;;;;;;5011162;28;20057;-42
2021/06/05 06:55:17;;;;;;;2.45;0.70;;;22.80;60.10;;;;;;5011779;28;20048;-42
2021/06/05 06:57:42;;;;;;;2.95;1.35;;;22.80;60.30;;;;;;5011414;28;20030;-42
2021/06/05 07:00:13;;;;;;;1.77;1.15;;;22.80;60.50;;;;;;5011930;28;20030;-42
2021/06/05 07:02:39;;;;;;;2.30;1.02;;;22.80;60.50;;;;;;5011166;28;20547;-43
2021/06/05 07:05:06;;;;;;;1.98;0.93;;;22.70;60.40;;;;;;5011966;28;20112;-43
2021/06/05 07:07:31;;;;;;;2.63;0.90;;;22.60;60.50;;;;;;5009738;28;20091;-49
2021/06/05 07:09:57;;;;;;;3.17;1.13;;;22.70;61.30;;;;;;5010165;28;20030;-47
2021/06/05 07:12:24;;;;;;;3.05;0.90;;;22.70;60.90;;;;;;5011638;28;20120;-43
2021/06/05 07:14:49;;;;;;;2.53;0.77;;;22.80;60.10;;;;;;5010986;28;20092;-42
2021/06/05 07:17:15;;;;;;;4.93;1.20;;;22.80;60.30;;;;;;5011282;28;20125;-43
2021/06/05 07:19:41;;;;;;;1.38;0.90;;;22.90;60.80;;;;;;5004474;28;20036;-40
2021/06/05 07:22:07;;;;;;;2.85;0.60;;;22.80;60.00;;;;;;5005472;28;20034;-42
2021/06/05 07:24:32;;;;;;;1.23;0.90;;;22.80;60.30;;;;;;5010034;28;20034;-49
2021/06/05 07:26:58;;;;;;;1.75;0.88;;;22.80;60.30;;;;;;5010469;28;20034;-43
2021/06/05 07:29:24;;;;;;;2.72;0.90;;;22.70;60.40;;;;;;5011297;28;20559;-42
2021/06/05 07:31:51;;;;;;;2.22;1.00;;;22.80;60.40;;;;;;5008060;28;20084;-43
2021/06/05 07:34:25;;;;;;;2.22;0.80;;;22.90;60.80;;;;;;5012241;28;20095;-43
2021/06/05 07:37:02;;;;;;;2.05;1.00;;;22.90;60.70;;;;;;5011235;28;20029;-43
2021/06/05 07:39:28;;;;;;;3.33;1.00;;;22.90;60.90;;;;;;5011639;28;20061;-42
2021/06/05 07:41:55;;;;;;;1.20;0.88;;;22.90;60.60;;;;;;5010552;28;20608;-42
2021/06/05 07:44:22;;;;;;;1.70;1.00;;;23.00;61.00;;;;;;5011447;28;20528;-42
2021/06/05 07:46:54;;;;;;;3.72;0.80;;;23.00;60.10;;;;;;5005806;28;20057;-43
2021/06/05 07:49:22;;;;;;;1.90;0.80;;;23.10;60.40;;;;;;5005366;28;20032;-42
2021/06/05 07:51:48;;;;;;;2.60;0.90;;;23.20;60.10;;;;;;5001663;28;20058;-43
2021/06/05 07:54:14;;;;;;;2.20;0.80;;;23.30;60.00;;;;;;5008352;28;20045;-43
2021/06/05 07:56:39;;;;;;;2.08;0.80;;;23.30;59.90;;;;;;5010588;28;20026;-43
2021/06/05 07:59:05;;;;;;;3.42;1.33;;;23.40;59.90;;;;;;5010094;28;20069;-42
2021/06/05 08:01:31;;;;;;;2.97;0.85;;;23.40;59.90;;;;;;5011028;28;20483;-42
2021/06/05 08:03:56;;;;;;;3.22;0.70;;;23.40;59.90;;;;;;5010053;28;20597;-43
2021/06/05 08:06:22;;;;;;;1.77;1.17;;;23.40;60.00;;;;;;5010693;28;20037;-43
2021/06/05 08:08:49;;;;;;;4.35;1.02;;;23.50;59.90;;;;;;5009431;28;20029;-43
2021/06/05 08:11:16;;;;;;;2.85;0.90;;;23.40;60.30;;;;;;5011117;28;20030;-42
2021/06/05 08:13:42;;;;;;;1.98;1.00;;;23.50;60.30;;;;;;5010202;28;20495;-43
2021/06/05 08:16:07;;;;;;;2.40;0.90;;;23.50;60.40;;;;;;5010939;28;20107;-43
2021/06/05 08:18:33;;;;;;;2.70;0.88;;;23.50;60.30;;;;;;5011228;28;20062;-42
2021/06/05 08:21:05;;;;;;;1.25;1.10;;;23.50;60.40;;;;;;5014534;28;20034;-42
2021/06/05 08:23:33;;;;;;;2.95;1.13;;;23.40;60.50;;;;;;5014621;28;20077;-43
2021/06/05 08:25:59;;;;;;;2.63;1.20;;;23.40;60.50;;;;;;5014296;28;20028;-42
2021/06/05 08:28:26;;;;;;;1.92;1.08;;;23.50;60.60;;;;;;5015102;28;20494;-42
2021/06/05 08:30:55;;;;;;;4.03;0.82;;;23.50;60.40;;;;;;5013830;28;20498;-42
2021/06/05 08:33:21;;;;;;;1.95;0.85;;;23.50;60.60;;;;;;5010442;28;20033;-42
2021/06/05 08:35:48;;;;;;;2.00;1.00;;;23.50;60.60;;;;;;5004782;28;20029;-42
2021/06/05 08:38:16;;;;;;;1.95;1.25;;;23.50;60.80;;;;;;5010731;28;20030;-42
2021/06/05 08:40:48;;;;;;;2.65;0.90;;;23.40;60.80;;;;;;5006478;28;20387;-43
2021/06/05 08:43:29;;;;;;;2.10;1.20;;;23.40;60.90;;;;;;5007852;28;20052;-42
2021/06/05 08:45:58;;;;;;;2.63;1.02;;;23.40;60.80;;;;;;5005080;28;20044;-47
2021/06/05 08:48:26;;;;;;;4.85;1.10;;;23.40;60.80;;;;;;5014602;28;20026;-43
2021/06/05 08:51:15;;;;;;;4.18;1.00;;;23.50;61.30;;;;;;5013767;28;20022;-43
2021/06/05 08:53:41;;;;;;;3.08;0.70;;;23.40;61.70;;;;;;5007533;28;20454;-45
2021/06/05 08:56:31;;;;;;;2.00;1.02;;;23.20;61.90;;;;;;5009683;28;20034;-43
2021/06/05 08:59:01;;;;;;;2.75;0.90;;;23.20;62.30;;;;;;5022061;28;20034;-43
2021/06/05 09:01:45;;;;;;;2.83;1.42;;;23.10;62.00;;;;;;5014227;28;20352;-43
2021/06/05 09:04:19;;;;;;;7.80;1.50;;;23.20;61.80;;;;;;5009988;28;20118;-42
2021/06/05 09:06:56;;;;;;;4.65;1.40;;;23.30;61.60;;;;;;4999824;28;20030;-44
2021/06/05 09:09:42;;;;;;;4.43;1.55;;;23.40;61.50;;;;;;5005164;28;20030;-44
2021/06/05 09:12:10;;;;;;;29.58;1.67;;;23.40;61.30;;;;;;5008226;28;20029;-44
2021/06/05 09:14:36;;;;;;;6.55;2.00;;;23.50;61.20;;;;;;5013172;28;20036;-44
2021/06/05 09:17:17;;;;;;;4.50;1.20;;;23.50;61.00;;;;;;5013738;28;20129;-43
2021/06/05 09:20:12;;;;;;;5.25;1.40;;;23.50;61.10;;;;;;5012840;28;20459;-44
2021/06/05 09:22:42;;;;;;;3.38;1.00;;;23.50;61.60;;;;;;5000376;28;20038;-50
2021/06/05 09:25:20;;;;;;;6.88;1.05;;;23.50;60.90;;;;;;5013564;28;20104;-44
2021/06/05 09:27:46;;;;;;;4.55;1.13;;;23.50;61.30;;;;;;5012983;28;20158;-44
2021/06/05 09:30:26;;;;;;;4.05;1.30;;;23.60;61.20;;;;;;5013823;28;20104;-44
2021/06/05 09:32:58;;;;;;;9.80;1.10;;;23.60;61.10;;;;;;5013069;28;20045;-44
2021/06/05 09:35:29;;;;;;;;;;;23.50;61.30;;;;;;5014537;28;20026;-43
2021/06/05 09:38:16;;;;;;;7.15;1.33;;;23.50;61.40;;;;;;5012689;28;19909;-45
2021/06/05 09:41:14;;;;;;;6.95;1.20;;;23.50;61.50;;;;;;5002133;28;20486;-50
2021/06/05 09:43:42;;;;;;;4.32;1.38;;;23.50;61.30;;;;;;5012751;28;20034;-49
2021/06/05 09:46:32;;;;;;;3.33;1.40;;;23.50;61.20;;;;;;5013836;28;20053;-44
2021/06/05 09:49:18;;;;;;;4.05;1.15;;;23.50;61.20;;;;;;5013091;28;20034;-44
2021/06/05 09:51:57;;;;;;;2.70;1.52;;;23.50;61.20;;;;;;5012413;28;20042;-44
2021/06/05 09:54:36;;;;;;;5.80;1.20;;;23.50;61.10;;;;;;5008984;28;20045;-44
2021/06/05 09:57:17;;;;;;;3.53;1.33;;;23.50;61.10;;;;;;5012834;28;20034;-44
2021/06/05 09:59:43;;;;;;;4.70;1.85;;;23.50;61.60;;;;;;5012100;28;20464;-48
2021/06/05 10:02:21;;;;;;;3.88;0.93;;;23.50;61.00;;;;;;5012373;28;20029;-46
2021/06/05 10:05:18;;;;;;;4.32;1.00;;;23.50;61.00;;;;;;5012402;28;20030;-44
2021/06/05 10:07:44;;;;;;;3.53;1.33;;;23.50;61.10;;;;;;5002507;28;20040;-50
2021/06/05 10:10:35;;;;;;;2.92;1.05;;;23.50;61.60;;;;;;5011222;28;20038;-44
2021/06/05 10:13:05;;;;;;;6.00;1.50;;;23.50;61.50;;;;;;5013193;28;20049;-43
2021/06/05 10:15:36;;;;;;;4.30;1.30;;;23.50;61.60;;;;;;5013018;28;20030;-43
2021/06/05 10:18:17;;;;;;;2.60;1.25;;;23.60;61.60;;;;;;5011967;28;20082;-43
2021/06/05 10:21:13;;;;;;;4.00;1.02;;;23.60;61.70;;;;;;5012369;28;20037;-50
2021/06/05 10:23:44;;;;;;;4.72;0.95;;;23.70;61.80;;;;;;5012265;28;20060;-48
2021/06/05 10:26:30;;;;;;;2.78;1.10;;;23.70;61.70;;;;;;5012352;28;20034;-43
2021/06/05 10:29:09;;;;;;;5.25;1.10;;;23.80;61.90;;;;;;5011939;28;20029;-44
2021/06/05 10:31:37;;;;;;;2.20;1.00;;;23.80;62.00;;;;;;5013956;28;20093;-43
2021/06/05 10:34:13;;;;;;;9.65;2.10;;;23.80;62.10;;;;;;5011708;28;20636;-43
2021/06/05 10:36:46;;;;;;;6.38;1.30;;;23.90;62.30;;;;;;5012569;28;20034;-43
2021/06/05 10:39:34;;;;;;;5.03;1.70;;;24.00;62.70;;;;;;5012584;28;20112;-45
2021/06/05 10:42:04;;;;;;;13.77;5.20;;;24.10;63.10;;;;;;5003213;28;20112;-36
2021/06/05 10:44:30;;;;;;;16.42;2.35;;;24.20;65.90;;;;;;5044289;28;20037;-35
2021/06/05 10:47:04;;;;;;;17.83;2.92;;;24.40;63.30;;;;;;5011517;28;20029;-35
2021/06/05 10:49:47;;;;;;;47.40;29.42;;;24.50;64.10;;;;;;5012067;28;20535;-35
2021/06/05 10:52:25;;;;;;;18.90;6.32;;;24.60;67.20;;;;;;5012159;28;20058;-37
2021/06/05 10:54:56;;;;;;;15.40;5.18;;;24.80;63.60;;;;;;5011731;28;20438;-35
2021/06/05 10:57:24;;;;;;;13.27;5.25;;;24.80;63.00;;;;;;5011617;28;20479;-36
2021/06/05 11:00:22;;;;;;;10.20;4.93;;;24.90;62.70;;;;;;5010219;28;20475;-35
2021/06/05 11:02:58;;;;;;;14.68;4.95;;;24.70;63.10;;;;;;4974905;28;20141;-36
2021/06/05 11:05:27;;;;;;;9.30;4.45;;;24.60;63.30;;;;;;5011726;28;20156;-37
2021/06/05 11:08:24;;;;;;;13.95;5.03;;;24.60;63.30;;;;;;5011176;28;20033;-36
2021/06/05 11:11:11;;;;;;;9.90;3.95;;;24.60;63.40;;;;;;4988199;28;20041;-37
2021/06/05 11:13:41;;;;;;;11.80;4.45;;;24.60;63.20;;;;;;5011930;28;20026;-36
2021/06/05 11:16:12;;;;;;;9.95;4.22;;;24.60;63.10;;;;;;5011302;28;20026;-35
2021/06/05 11:18:43;;;;;;;12.55;4.22;;;24.60;63.10;;;;;;5012002;28;20029;-36
2021/06/05 11:21:24;;;;;;;10.52;4.30;;;24.50;63.00;;;;;;5011316;28;20088;-36
2021/06/05 11:23:55;;;;;;;10.25;3.95;;;24.60;62.90;;;;;;5010992;28;20498;-36
2021/06/05 11:26:37;;;;;;;13.07;4.03;;;24.60;62.80;;;;;;5011688;28;20136;-35
2021/06/05 11:29:25;;;;;;;6.55;3.65;;;24.50;62.90;;;;;;5004565;28;20076;-36
2021/06/05 11:31:52;;;;;;;11.38;3.75;;;24.50;63.50;;;;;;5010510;28;20115;-36
2021/06/05 11:34:33;;;;;;;14.88;3.90;;;24.50;62.90;;;;;;5011818;28;20049;-35
2021/06/05 11:37:14;;;;;;;10.98;4.30;;;24.60;63.00;;;;;;5010553;28;20127;-41
2021/06/05 11:39:45;;;;;;;12.50;4.22;;;24.50;63.00;;;;;;5011534;28;20034;-35
2021/06/05 11:42:20;;;;;;;11.98;4.00;;;24.50;63.00;;;;;;5009330;28;20056;-36
2021/06/05 11:44:49;;;;;;;8.48;3.78;;;24.50;63.40;;;;;;5010405;28;20494;-44
2021/06/05 11:47:18;;;;;;;11.27;3.88;;;24.50;63.40;;;;;;5011071;28;20029;-35
2021/06/05 11:50:19;;;;;;;11.55;4.13;;;24.60;63.30;;;;;;5010816;28;20129;-43
2021/06/05 11:52:51;;;;;;;15.88;3.70;;;24.60;63.30;;;;;;5002604;28;20377;-36
2021/06/05 11:55:43;;;;;;;9.82;4.00;;;24.60;63.40;;;;;;5015892;28;20026;-35
2021/06/05 11:58:36;;;;;;;8.63;3.78;;;24.60;63.60;;;;;;5030083;28;20060;-35
2021/06/05 12:01:29;;;;;;;17.42;4.65;;;24.50;63.40;;;;;;5012140;28;20073;-36
2021/06/05 12:04:04;;;;;;;12.32;3.53;;;24.50;63.50;;;;;;5013906;28;20077;-35
2021/06/05 12:06:40;;;;;;;12.38;4.43;;;24.50;63.70;;;;;;5006823;28;20030;-35
2021/06/05 12:09:12;;;;;;;17.45;4.38;;;24.50;64.00;;;;;;5012438;28;20030;-35
2021/06/05 12:11:42;;;;;;;;;;;24.30;64.00;;;;;;5015589;28;20030;-36
2021/06/05 12:14:37;;;;;;;12.63;3.42;;;24.30;64.00;;;;;;5014382;28;19955;-35
2021/06/05 12:17:07;;;;;;;10.57;3.42;;;24.30;63.90;;;;;;5030792;28;20830;-35
2021/06/05 12:19:35;;;;;;;20.08;3.78;;;24.20;64.50;;;;;;5015315;28;20156;-36
2021/06/05 12:22:15;;;;;;;16.17;4.00;;;24.20;63.70;;;;;;5014342;28;20096;-35
2021/06/05 12:24:47;;;;;;;13.25;4.20;;;24.20;63.80;;;;;;5014491;28;20045;-36
2021/06/05 12:27:27;;;;;;;15.68;2.78;;;24.20;63.80;;;;;;5014779;28;20036;-36
2021/06/05 12:30:07;;;;;;;10.98;3.22;;;24.20;63.70;;;;;;5014168;28;20112;-36
2021/06/05 12:32:33;;;;;;;14.43;2.92;;;24.20;63.60;;;;;;5013827;28;20018;-36
2021/06/05 12:34:58;;;;;;;12.32;3.05;;;24.20;63.70;;;;;;5012806;28;20034;-36
2021/06/05 12:37:31;;;;;;;10.70;3.95;;;24.20;63.60;;;;;;5011816;28;20100;-36
2021/06/05 12:40:00;;;;;;;9.30;2.88;;;24.20;63.60;;;;;;5013921;28;20034;-36
2021/06/05 12:42:34;;;;;;;9.98;2.72;;;24.20;63.40;;;;;;5014891;28;20026;-36
2021/06/05 12:45:09;;;;;;;11.50;2.67;;;24.20;63.40;;;;;;5018380;28;20041;-36
2021/06/05 12:47:40;;;;;;;10.77;3.42;;;24.20;63.30;;;;;;5014977;28;20034;-41
2021/06/05 12:50:14;;;;;;;6.60;2.10;;;24.20;63.10;;;;;;5012316;28;20030;-35
2021/06/05 12:52:43;;;;;;;6.70;2.35;;;24.20;63.00;;;;;;5014706;28;20621;-35
2021/06/05 12:55:27;;;;;;;7.63;2.28;;;24.20;62.80;;;;;;5013584;28;20072;-36
2021/06/05 12:57:59;;;;;;;6.88;2.53;;;24.10;62.70;;;;;;5013193;28;20030;-37
2021/06/05 13:00:30;;;;;;;7.20;2.10;;;24.20;62.70;;;;;;5014607;28;20184;-36
2021/06/05 13:03:16;;;;;;;6.95;1.50;;;24.10;62.70;;;;;;5013168;28;20073;-36
2021/06/05 13:06:14;;;;;;;4.22;1.80;;;24.10;62.50;;;;;;5013736;28;20111;-35